createdAt,value
2018-10-21T00:00:52.463Z,82.68
2018-10-21T00:03:20.868Z,83.51
2018-10-21T00:05:49.297Z,82.85
2018-10-21T00:08:17.723Z,82.43
2018-10-21T00:10:46.137Z,83.84
2018-10-21T00:13:14.501Z,83.41
2018-10-21T00:15:43.005Z,84.00
2018-10-21T00:18:11.387Z,83.74
2018-10-21T00:20:39.784Z,83.49
2018-10-21T00:23:08.149Z,83.60
2018-10-21T00:25:37.312Z,83.76
2018-10-21T00:28:06.229Z,83.39
2018-10-21T00:30:34.656Z,82.90
2018-10-21T00:33:03.129Z,84.16
2018-10-21T00:35:31.489Z,83.78
2018-10-21T00:37:59.916Z,83.88
2018-10-21T00:40:28.332Z,83.31
2018-10-21T00:42:56.814Z,83.84
2018-10-21T00:45:25.234Z,84.19
2018-10-21T00:47:53.644Z,84.60
2018-10-21T00:50:22.055Z,83.69
2018-10-21T00:52:50.523Z,84.52
2018-10-21T00:55:18.935Z,84.76
2018-10-21T00:57:47.305Z,84.35
2018-10-21T01:00:15.686Z,84.69
2018-10-21T01:02:44.092Z,83.83
2018-10-21T01:05:12.472Z,84.32
2018-10-21T01:07:40.895Z,84.83
2018-10-21T01:10:11.192Z,85.37
2018-10-21T01:12:39.752Z,85.05
2018-10-21T01:15:09.618Z,84.93
2018-10-21T01:17:37.960Z,84.92
2018-10-21T01:20:08.332Z,85.29
2018-10-21T01:22:36.795Z,84.75
2018-10-21T01:25:05.440Z,83.94
2018-10-21T01:27:33.864Z,84.39
2018-10-21T01:30:02.325Z,84.69
2018-10-21T01:32:30.712Z,84.92
2018-10-21T01:34:59.131Z,84.92
2018-10-21T01:37:27.569Z,84.79
2018-10-21T01:40:59.776Z,84.70
2018-10-21T01:43:30.456Z,84.26
2018-10-21T01:45:59.337Z,84.57
2018-10-21T01:48:28.829Z,85.45
2018-10-21T01:50:57.317Z,85.18
2018-10-21T01:53:25.986Z,84.75
2018-10-21T01:55:54.345Z,84.93
2018-10-21T01:58:22.728Z,85.02
2018-10-21T02:00:51.143Z,85.19
2018-10-21T02:03:19.696Z,85.76
2018-10-21T02:05:48.423Z,84.76
2018-10-21T02:08:16.807Z,84.86
2018-10-21T02:10:45.864Z,84.23
2018-10-21T02:13:14.289Z,84.17
2018-10-21T02:15:42.664Z,84.25
2018-10-21T02:18:11.089Z,83.65
2018-10-21T02:20:39.491Z,83.87
2018-10-21T02:23:07.940Z,84.57
2018-10-21T02:25:37.264Z,84.96
2018-10-21T02:28:05.701Z,84.62
2018-10-21T02:30:34.094Z,84.91
2018-10-21T02:33:02.776Z,84.84
2018-10-21T02:35:31.130Z,84.93
2018-10-21T02:37:59.545Z,85.17
2018-10-21T02:41:39.829Z,85.66
2018-10-21T02:44:10.370Z,84.60
2018-10-21T02:46:39.658Z,84.65
2018-10-21T02:49:08.823Z,85.12
2018-10-21T02:51:37.205Z,84.95
2018-10-21T02:54:06.152Z,84.96
2018-10-21T02:56:34.607Z,85.15
2018-10-21T02:59:03.028Z,85.33
2018-10-21T03:01:31.472Z,85.33
2018-10-21T03:03:59.834Z,84.82
2018-10-21T03:06:28.342Z,84.71
2018-10-21T03:08:56.768Z,85.24
2018-10-21T03:11:25.143Z,84.52
2018-10-21T03:13:54.344Z,85.14
2018-10-21T03:16:22.783Z,84.90
2018-10-21T03:18:51.188Z,85.66
2018-10-21T03:21:19.680Z,85.24
2018-10-21T03:23:48.006Z,85.36
2018-10-21T03:26:16.440Z,84.84
2018-10-21T03:28:44.902Z,85.97
2018-10-21T03:31:13.330Z,85.25
2018-10-21T03:33:41.727Z,85.34
2018-10-21T03:36:10.158Z,85.44
2018-10-21T03:38:39.243Z,85.09
2018-10-21T03:41:07.659Z,85.00
2018-10-21T03:43:36.056Z,84.86
2018-10-21T03:46:04.537Z,85.92
2018-10-21T03:48:32.935Z,85.91
2018-10-21T03:51:01.359Z,86.10
2018-10-21T03:53:29.855Z,85.24
2018-10-21T03:55:58.269Z,85.45
2018-10-21T03:58:26.712Z,85.16
2018-10-21T04:00:55.112Z,85.12
2018-10-21T04:03:23.489Z,86.64
2018-10-21T04:05:51.900Z,85.95
2018-10-21T04:08:20.264Z,84.99
2018-10-21T04:10:48.709Z,85.71
2018-10-21T04:13:17.101Z,85.49
2018-10-21T04:15:45.545Z,85.97
2018-10-21T04:18:13.940Z,86.21
2018-10-21T04:20:42.330Z,85.86
2018-10-21T04:23:10.744Z,85.43
2018-10-21T04:25:39.869Z,85.79
2018-10-21T04:28:08.909Z,85.08
2018-10-21T04:30:38.455Z,85.08
2018-10-21T04:34:09.769Z,85.29
2018-10-21T04:36:38.075Z,85.95
2018-10-21T04:39:45.912Z,85.88
2018-10-21T04:42:14.295Z,86.13
2018-10-21T04:44:42.693Z,85.26
2018-10-21T04:47:11.230Z,85.65
2018-10-21T04:49:39.517Z,85.84
2018-10-21T04:52:08.123Z,85.62
2018-10-21T04:54:36.656Z,86.56
2018-10-21T04:57:07.091Z,85.98
2018-10-21T04:59:36.432Z,86.36
2018-10-21T05:02:04.923Z,86.21
2018-10-21T05:04:33.405Z,85.90
2018-10-21T05:07:01.788Z,86.24
2018-10-21T05:09:31.166Z,85.82
2018-10-21T05:11:59.564Z,85.95
2018-10-21T05:14:27.993Z,85.91
2018-10-21T05:16:56.413Z,86.58
2018-10-21T05:19:24.841Z,87.27
2018-10-21T05:21:53.221Z,86.88
2018-10-21T05:24:21.608Z,86.98
2018-10-21T05:26:50.139Z,86.43
2018-10-21T05:29:18.529Z,86.75
2018-10-21T05:31:46.933Z,86.37
2018-10-21T05:34:15.401Z,86.82
2018-10-21T05:36:43.779Z,86.17
2018-10-21T05:39:12.220Z,85.90
2018-10-21T05:41:41.116Z,85.52
2018-10-21T05:44:09.599Z,85.57
2018-10-21T05:46:48.977Z,85.93
2018-10-21T05:49:17.551Z,85.92
2018-10-21T05:51:47.236Z,86.57
2018-10-21T05:54:16.577Z,86.16
2018-10-21T05:56:46.237Z,86.31
2018-10-21T05:59:15.182Z,86.83
2018-10-21T06:01:44.239Z,85.99
2018-10-21T06:04:13.638Z,86.01
2018-10-21T06:06:41.932Z,86.10
2018-10-21T06:09:11.704Z,86.29
2018-10-21T06:11:40.221Z,86.57
2018-10-21T06:14:08.682Z,86.68
2018-10-21T06:16:56.809Z,86.16
2018-10-21T06:19:32.565Z,87.14
2018-10-21T06:22:01.051Z,86.37
2018-10-21T06:24:29.397Z,86.66
2018-10-21T06:26:57.814Z,86.49
2018-10-21T06:29:26.208Z,86.12
2018-10-21T06:31:54.670Z,86.20
2018-10-21T06:34:24.737Z,86.44
2018-10-21T06:36:53.315Z,87.23
2018-10-21T06:39:21.911Z,86.88
2018-10-21T06:41:50.340Z,87.17
2018-10-21T06:44:18.764Z,87.38
2018-10-21T06:46:47.165Z,86.87
2018-10-21T06:49:15.549Z,86.54
2018-10-21T06:51:43.966Z,86.62
2018-10-21T06:54:12.420Z,87.05
2018-10-21T06:56:40.902Z,86.86
2018-10-21T06:59:09.281Z,86.62
2018-10-21T07:01:37.675Z,87.21
2018-10-21T07:04:06.681Z,87.54
2018-10-21T07:06:35.053Z,87.81
2018-10-21T07:09:05.747Z,87.33
2018-10-21T07:11:34.191Z,87.12
2018-10-21T07:14:02.618Z,87.16
2018-10-21T07:16:32.652Z,87.02
2018-10-21T07:19:00.937Z,87.16
2018-10-21T07:21:29.365Z,87.27
2018-10-21T07:23:57.789Z,87.07
2018-10-21T07:26:26.295Z,87.05
2018-10-21T07:28:54.753Z,87.91
2018-10-21T07:31:23.177Z,87.36
2018-10-21T07:33:51.601Z,87.62
2018-10-21T07:36:20.044Z,87.61
2018-10-21T07:38:48.454Z,87.89
2018-10-21T07:41:16.911Z,87.98
2018-10-21T07:43:45.346Z,87.88
2018-10-21T07:46:13.845Z,87.60
2018-10-21T07:48:42.328Z,87.24
2018-10-21T07:51:10.777Z,87.02
2018-10-21T07:53:39.158Z,87.50
2018-10-21T07:56:07.519Z,87.16
2018-10-21T07:58:35.971Z,87.47
2018-10-21T08:01:04.473Z,87.01
2018-10-21T08:03:32.854Z,86.55
2018-10-21T08:06:30.791Z,87.05
2018-10-21T08:08:59.250Z,86.95
2018-10-21T08:11:27.656Z,86.59
2018-10-21T08:13:56.091Z,86.92
2018-10-21T08:16:24.516Z,86.90
2018-10-21T08:18:53.900Z,87.12
2018-10-21T08:21:22.513Z,87.28
2018-10-21T08:23:50.849Z,87.59
2018-10-21T08:26:19.349Z,87.47
2018-10-21T08:28:47.964Z,87.12
2018-10-21T08:31:16.432Z,87.75
2018-10-21T08:33:44.957Z,86.69
2018-10-21T08:36:13.385Z,86.87
2018-10-21T08:38:41.809Z,86.77
2018-10-21T08:41:10.285Z,86.41
2018-10-21T08:43:38.713Z,86.18
2018-10-21T08:46:07.251Z,86.99
2018-10-21T08:48:35.672Z,86.26
2018-10-21T08:51:04.109Z,86.28
2018-10-21T08:53:32.606Z,86.23
2018-10-21T08:56:01.073Z,85.50
2018-10-21T08:58:29.540Z,85.35
2018-10-21T09:00:58.076Z,85.35
2018-10-21T09:03:26.505Z,85.47
2018-10-21T09:05:54.953Z,85.67
2018-10-21T09:08:23.385Z,85.44
2018-10-21T09:10:51.841Z,84.98
2018-10-21T09:13:20.283Z,85.65
2018-10-21T09:15:48.722Z,84.91
2018-10-21T09:18:17.164Z,84.29
2018-10-21T09:20:45.769Z,85.02
2018-10-21T09:23:14.149Z,85.06
2018-10-21T09:25:42.894Z,84.25
2018-10-21T09:28:11.405Z,84.50
2018-10-21T09:30:39.827Z,83.67
2018-10-21T09:33:08.250Z,83.99
2018-10-21T09:35:36.690Z,83.43
2018-10-21T09:38:06.165Z,83.14
2018-10-21T09:40:34.671Z,82.43
2018-10-21T09:43:04.133Z,83.40
2018-10-21T09:45:32.528Z,82.79
2018-10-21T09:48:01.184Z,83.34
2018-10-21T09:50:29.614Z,83.12
2018-10-21T09:52:58.044Z,82.79
2018-10-21T09:55:26.476Z,82.66
2018-10-21T09:57:54.918Z,83.00
2018-10-21T10:00:28.576Z,82.19
2018-10-21T10:03:02.298Z,81.75
2018-10-21T10:05:30.770Z,81.59
2018-10-21T10:07:59.256Z,81.60
2018-10-21T10:10:27.687Z,81.40
2018-10-21T10:12:56.168Z,81.73
2018-10-21T10:15:24.546Z,81.91
2018-10-21T10:17:53.069Z,81.09
2018-10-21T10:20:21.614Z,80.69
2018-10-21T10:22:50.179Z,80.75
2018-10-21T10:25:18.778Z,80.22
2018-10-21T10:27:47.138Z,79.82
2018-10-21T10:30:15.653Z,80.03
2018-10-21T10:32:44.544Z,80.67
2018-10-21T10:35:13.964Z,79.85
2018-10-21T10:37:42.709Z,79.92
2018-10-21T10:40:12.220Z,79.62
2018-10-21T10:42:41.035Z,79.19
2018-10-21T10:45:09.549Z,77.81
2018-10-21T10:47:38.549Z,77.45
2018-10-21T10:50:10.727Z,78.07
2018-10-21T10:52:39.255Z,77.64
2018-10-21T10:55:08.198Z,77.68
2018-10-21T10:57:36.593Z,78.06
2018-10-21T11:00:05.818Z,77.91
2018-10-21T11:02:34.153Z,76.87
2018-10-21T11:05:02.612Z,76.91
2018-10-21T11:07:31.072Z,76.78
2018-10-21T11:09:59.519Z,76.48
2018-10-21T11:12:27.937Z,76.14
2018-10-21T11:14:57.040Z,75.99
2018-10-21T11:17:25.508Z,74.95
2018-10-21T11:19:53.938Z,74.54
2018-10-21T11:22:22.445Z,75.11
2018-10-21T11:24:50.868Z,74.53
2018-10-21T11:27:19.377Z,73.76
2018-10-21T11:29:49.398Z,72.73
2018-10-21T11:32:17.778Z,73.46
2018-10-21T11:34:46.256Z,72.88
2018-10-21T11:37:14.833Z,73.36
2018-10-21T11:39:43.848Z,72.93
2018-10-21T11:42:12.236Z,72.93
2018-10-21T11:44:40.649Z,72.98
2018-10-21T11:47:09.117Z,73.37
2018-10-21T11:49:37.561Z,72.19
2018-10-21T11:52:07.109Z,72.69
2018-10-21T11:54:35.489Z,72.59
2018-10-21T11:57:03.954Z,71.66
2018-10-21T11:59:32.397Z,71.25
2018-10-21T12:02:00.892Z,70.74
2018-10-21T12:04:30.220Z,71.18
2018-10-21T12:06:58.737Z,71.12
2018-10-21T12:09:27.155Z,70.79
2018-10-21T12:11:55.586Z,70.24
2018-10-21T12:14:24.031Z,70.43
2018-10-21T12:16:52.500Z,69.92
2018-10-21T12:19:20.956Z,69.71
2018-10-21T12:21:49.345Z,69.03
2018-10-21T12:24:17.776Z,68.66
2018-10-21T12:26:46.187Z,68.84
2018-10-21T12:29:14.628Z,69.09
2018-10-21T12:31:43.059Z,68.84
2018-10-21T12:34:13.950Z,68.99
2018-10-21T12:36:42.253Z,68.90
2018-10-21T12:39:11.667Z,66.95
2018-10-21T12:41:40.924Z,67.76
2018-10-21T12:44:09.393Z,68.49
2018-10-21T12:46:38.361Z,68.15
2018-10-21T12:49:07.027Z,68.28
2018-10-21T12:51:36.365Z,68.84
2018-10-21T12:54:05.378Z,66.30
2018-10-21T12:56:34.683Z,61.27
2018-10-21T12:59:03.092Z,59.58
2018-10-21T13:01:31.517Z,56.46
2018-10-21T13:04:00.014Z,54.65
2018-10-21T13:06:28.428Z,53.89
2018-10-21T13:08:56.956Z,52.47
2018-10-21T13:11:25.466Z,52.23
2018-10-21T13:13:53.936Z,54.41
2018-10-21T13:16:22.379Z,55.38
2018-10-21T13:18:50.824Z,53.13
2018-10-21T13:21:19.306Z,52.84
2018-10-21T13:23:47.752Z,53.69
2018-10-21T13:26:16.157Z,56.15
2018-10-21T13:28:44.592Z,55.26
2018-10-21T13:31:13.138Z,57.90
2018-10-21T13:33:41.494Z,58.36
2018-10-21T13:36:09.934Z,57.84
2018-10-21T13:38:38.408Z,58.72
2018-10-21T13:41:06.884Z,59.64
2018-10-21T13:43:35.373Z,59.68
2018-10-21T13:46:03.974Z,59.51
2018-10-21T13:48:32.316Z,57.64
2018-10-21T13:51:00.808Z,59.17
2018-10-21T13:53:29.239Z,59.35
2018-10-21T13:55:57.661Z,59.05
2018-10-21T13:58:26.037Z,59.04
2018-10-21T14:00:54.556Z,58.12
2018-10-21T14:03:22.875Z,59.23
2018-10-21T14:05:51.304Z,58.28
2018-10-21T14:08:19.730Z,60.27
2018-10-21T14:10:48.136Z,59.58
2018-10-21T14:13:16.630Z,60.33
2018-10-21T14:15:45.092Z,59.78
2018-10-21T14:18:13.441Z,59.84
2018-10-21T14:20:46.166Z,60.54
2018-10-21T14:23:14.600Z,59.68
2018-10-21T14:25:43.001Z,59.81
2018-10-21T14:28:11.532Z,59.45
2018-10-21T14:30:39.980Z,60.10
2018-10-21T14:33:08.461Z,60.06
2018-10-21T14:35:36.812Z,60.87
2018-10-21T14:38:05.334Z,60.57
2018-10-21T14:40:33.685Z,60.74
2018-10-21T14:43:02.100Z,59.84
2018-10-21T14:45:30.476Z,60.93
2018-10-21T14:47:59.210Z,60.54
2018-10-21T14:50:27.593Z,61.44
2018-10-21T14:52:56.018Z,61.87
2018-10-21T14:55:24.409Z,62.16
2018-10-21T14:57:52.882Z,61.23
2018-10-21T15:00:21.348Z,61.28
2018-10-21T15:02:49.787Z,61.60
2018-10-21T15:05:18.181Z,62.02
2018-10-21T15:07:47.132Z,63.17
2018-10-21T15:10:15.585Z,63.09
2018-10-21T15:12:44.032Z,63.48
2018-10-21T15:15:12.536Z,62.93
2018-10-21T15:17:40.992Z,63.26
2018-10-21T15:20:11.447Z,62.87
2018-10-21T15:22:39.861Z,63.25
2018-10-21T15:25:09.951Z,64.76
2018-10-21T15:27:38.739Z,64.18
2018-10-21T15:30:08.435Z,63.91
2018-10-21T15:32:36.909Z,64.62
2018-10-21T15:35:05.994Z,65.12
2018-10-21T15:37:34.453Z,64.72
2018-10-21T15:40:04.230Z,64.86
2018-10-21T15:42:33.625Z,65.56
2018-10-21T15:45:01.980Z,66.74
2018-10-21T15:47:30.405Z,66.67
2018-10-21T15:49:59.781Z,66.41
2018-10-21T15:52:28.239Z,66.90
2018-10-21T15:54:56.641Z,67.35
2018-10-21T15:57:25.775Z,67.90
2018-10-21T15:59:54.192Z,68.25
2018-10-21T16:02:22.721Z,67.59
2018-10-21T16:04:51.168Z,68.02
2018-10-21T16:07:19.585Z,69.47
2018-10-21T16:09:48.085Z,69.87
2018-10-21T16:12:16.547Z,69.58
2018-10-21T16:14:44.962Z,70.59
2018-10-21T16:17:13.382Z,71.16
2018-10-21T16:19:41.819Z,71.46
2018-10-21T16:22:10.222Z,71.83
2018-10-21T16:24:38.648Z,71.41
2018-10-21T16:27:07.125Z,72.28
2018-10-21T16:29:35.590Z,72.84
2018-10-21T16:32:04.191Z,72.84
2018-10-21T16:34:32.487Z,73.11
2018-10-21T16:37:00.912Z,73.71
2018-10-21T16:39:29.328Z,74.51
2018-10-21T16:41:57.784Z,75.39
2018-10-21T16:44:26.175Z,74.98
2018-10-21T16:46:54.660Z,74.55
2018-10-21T16:49:23.116Z,75.03
2018-10-21T16:51:51.599Z,75.61
2018-10-21T16:54:20.072Z,75.62
2018-10-21T16:56:48.528Z,76.37
2018-10-21T16:59:17.011Z,76.32
2018-10-21T17:01:45.394Z,76.52
2018-10-21T17:04:14.934Z,76.98
2018-10-21T17:06:43.321Z,77.91
2018-10-21T17:09:13.899Z,77.86
2018-10-21T17:11:42.573Z,78.28
2018-10-21T17:14:11.032Z,78.45
2018-10-21T17:16:39.568Z,78.11
2018-10-21T17:19:08.136Z,77.92
2018-10-21T17:21:36.605Z,78.42
2018-10-21T17:24:05.053Z,79.04
2018-10-21T17:26:33.484Z,79.37
2018-10-21T17:29:01.945Z,78.99
2018-10-21T17:31:30.332Z,79.04
2018-10-21T17:33:58.747Z,79.56
2018-10-21T17:36:27.167Z,79.20
2018-10-21T17:38:55.568Z,79.57
2018-10-21T17:41:23.989Z,79.34
2018-10-21T17:43:52.418Z,79.64
2018-10-21T17:46:20.960Z,79.64
2018-10-21T17:48:49.422Z,80.06
2018-10-21T17:51:17.938Z,80.57
2018-10-21T17:53:46.421Z,80.24
2018-10-21T17:56:14.926Z,80.80
2018-10-21T17:58:43.341Z,80.49
2018-10-21T18:01:18.172Z,80.98
2018-10-21T18:03:48.195Z,81.15
2018-10-21T18:06:18.720Z,80.87
2018-10-21T18:08:47.164Z,80.90
2018-10-21T18:11:17.404Z,80.59
2018-10-21T18:13:49.362Z,81.32
2018-10-21T18:16:19.243Z,80.85
2018-10-21T18:21:29.183Z,80.70
2018-10-21T18:23:57.737Z,81.15
2018-10-21T18:26:26.235Z,81.60
2018-10-21T18:28:54.722Z,81.08
2018-10-21T18:31:23.285Z,81.20
2018-10-21T18:33:51.762Z,80.89
2018-10-21T18:36:20.222Z,81.01
2018-10-21T18:38:48.736Z,82.08
2018-10-21T18:41:17.342Z,82.01
2018-10-21T18:43:45.783Z,81.73
2018-10-21T18:46:14.264Z,81.65
2018-10-21T18:48:42.770Z,81.93
2018-10-21T18:51:11.206Z,81.44
2018-10-21T18:53:40.615Z,81.91
2018-10-21T18:56:09.079Z,82.16
2018-10-21T18:58:37.612Z,81.96
2018-10-21T19:01:06.084Z,82.04
2018-10-21T19:03:34.645Z,81.98
2018-10-21T19:06:03.201Z,81.89
2018-10-21T19:08:31.669Z,81.88
2018-10-21T19:11:00.133Z,82.36
2018-10-21T19:13:28.690Z,82.46
2018-10-21T19:15:57.146Z,82.54
2018-10-21T19:18:25.633Z,82.59
2018-10-21T19:20:54.177Z,82.53
2018-10-21T19:23:22.626Z,82.40
2018-10-21T19:25:51.043Z,82.37
2018-10-21T19:28:19.603Z,82.33
2018-10-21T19:30:48.063Z,82.37
2018-10-21T19:33:16.528Z,82.08
2018-10-21T19:35:45.013Z,82.98
2018-10-21T19:38:13.479Z,82.81
2018-10-21T19:40:41.943Z,82.65
2018-10-21T19:43:10.472Z,82.98
2018-10-21T19:45:38.881Z,83.29
2018-10-21T19:48:07.359Z,82.77
2018-10-21T19:50:35.812Z,82.54
2018-10-21T19:53:04.324Z,82.42
2018-10-21T19:55:32.824Z,82.89
2018-10-21T19:58:01.338Z,82.34
2018-10-21T20:00:29.749Z,82.61
2018-10-21T20:02:58.208Z,82.41
2018-10-21T20:05:26.722Z,82.84
2018-10-21T20:07:55.180Z,82.19
2018-10-21T20:10:23.616Z,82.76
2018-10-21T20:12:52.125Z,82.85
2018-10-21T20:15:20.628Z,83.36
2018-10-21T20:17:49.054Z,82.51
2018-10-21T20:20:17.542Z,82.78
2018-10-21T20:22:46.600Z,83.19
2018-10-21T20:25:15.252Z,82.99
2018-10-21T20:27:43.685Z,82.81
2018-10-21T20:30:13.482Z,82.42
2018-10-21T20:32:42.396Z,82.57
2018-10-21T20:35:11.844Z,83.25
2018-10-21T20:37:40.410Z,82.68
2018-10-21T20:40:09.666Z,82.74
2018-10-21T20:42:38.229Z,83.07
2018-10-21T20:45:08.177Z,83.17
2018-10-21T20:47:36.762Z,83.50
2018-10-21T20:50:05.829Z,83.05
2018-10-21T20:52:34.321Z,83.57
2018-10-21T20:55:02.784Z,82.96
2018-10-21T20:57:31.194Z,83.30
2018-10-21T20:59:59.617Z,83.72
2018-10-21T21:02:30.394Z,83.14
2018-10-21T21:04:58.841Z,83.04
2018-10-21T21:07:27.336Z,83.89
2018-10-21T21:09:56.511Z,83.32
2018-10-21T21:12:24.907Z,83.48
2018-10-21T21:14:53.413Z,84.28
2018-10-21T21:17:21.844Z,83.40
2018-10-21T21:19:50.320Z,83.44
2018-10-21T21:22:18.864Z,83.83
2018-10-21T21:24:47.205Z,83.44
2018-10-21T21:27:15.648Z,83.59
2018-10-21T21:29:44.131Z,84.33
2018-10-21T21:32:21.080Z,83.67
2018-10-21T21:34:49.526Z,83.70
2018-10-21T21:37:17.946Z,83.99
2018-10-21T21:39:46.371Z,83.89
2018-10-21T21:42:14.783Z,84.13
2018-10-21T21:44:43.233Z,83.93
2018-10-21T21:47:11.752Z,83.49
2018-10-21T21:49:40.169Z,83.48
2018-10-21T21:52:11.002Z,84.11
2018-10-21T21:54:40.408Z,83.94
2018-10-21T21:57:08.921Z,83.92
2018-10-21T21:59:37.339Z,83.63
2018-10-21T22:02:05.763Z,83.62
2018-10-21T22:04:34.192Z,84.64
2018-10-21T22:07:02.641Z,84.20
2018-10-21T22:09:31.107Z,84.20
2018-10-21T22:11:59.608Z,83.99
2018-10-21T22:17:12.989Z,84.26
2018-10-21T22:19:41.400Z,84.46
2018-10-21T22:22:16.657Z,83.85
2018-10-21T22:27:30.719Z,83.98
2018-10-21T22:29:59.213Z,83.99
2018-10-21T22:32:27.686Z,84.05
2018-10-21T22:34:56.159Z,84.57
2018-10-21T22:37:24.552Z,84.68
2018-10-21T22:39:53.865Z,85.03
2018-10-21T22:42:23.038Z,85.10
2018-10-21T22:44:52.104Z,84.70
2018-10-21T22:50:03.621Z,84.21
2018-10-21T22:52:33.477Z,84.21
2018-10-21T22:55:01.927Z,84.75
2018-10-21T22:57:30.346Z,84.09
2018-10-21T22:59:58.792Z,84.81
2018-10-21T23:02:27.260Z,84.78
2018-10-21T23:04:55.710Z,84.01
2018-10-21T23:07:24.160Z,84.79
2018-10-21T23:09:53.130Z,84.76
2018-10-21T23:12:21.570Z,84.88
2018-10-21T23:14:50.098Z,84.71
2018-10-21T23:17:18.552Z,84.84
2018-10-21T23:19:48.446Z,84.68
2018-10-21T23:22:17.030Z,84.19
2018-10-21T23:24:45.400Z,84.49
2018-10-21T23:27:14.324Z,84.72
2018-10-21T23:29:43.711Z,85.05
2018-10-21T23:32:12.352Z,84.79
2018-10-21T23:34:40.841Z,85.09
2018-10-21T23:37:09.253Z,85.20
2018-10-21T23:39:37.723Z,84.38
2018-10-21T23:42:06.219Z,84.71
2018-10-21T23:44:34.628Z,84.99
2018-10-21T23:47:03.132Z,84.97
2018-10-21T23:49:31.588Z,84.70
2018-10-21T23:52:00.072Z,85.20
2018-10-21T23:54:28.444Z,85.05
2018-10-21T23:56:56.899Z,84.85
2018-10-21T23:59:25.376Z,85.22
